createdAt,value
2018-10-17T00:00:08.951Z,24.9
2018-10-17T00:01:14.294Z,24.9
2018-10-17T00:02:20.739Z,24.9
2018-10-17T00:03:26.492Z,24.9
2018-10-17T00:04:31.745Z,24.9
2018-10-17T00:05:36.930Z,24.9
2018-10-17T00:06:42.185Z,24.9
2018-10-17T00:07:47.114Z,24.9
2018-10-17T00:08:52.061Z,24.9
2018-10-17T00:09:57.763Z,24.9
2018-10-17T00:11:02.989Z,24.9
2018-10-17T00:12:08.511Z,24.9
2018-10-17T00:13:13.867Z,24.9
2018-10-17T00:14:19.620Z,24.9
2018-10-17T00:15:23.920Z,24.9
2018-10-17T00:16:43.779Z,24.9
2018-10-17T00:17:49.251Z,24.9
2018-10-17T00:18:54.276Z,24.9
2018-10-17T00:19:59.575Z,24.9
2018-10-17T00:21:04.576Z,24.9
2018-10-17T00:22:10.259Z,24.9
2018-10-17T00:23:15.506Z,24.9
2018-10-17T00:24:21.035Z,24.9
2018-10-17T00:25:26.561Z,24.9
2018-10-17T00:26:31.562Z,24.8
2018-10-17T00:27:37.252Z,24.8
2018-10-17T00:28:42.718Z,24.9
2018-10-17T00:29:47.880Z,24.8
2018-10-17T00:30:53.468Z,24.8
2018-10-17T00:31:58.727Z,24.9
2018-10-17T00:33:04.158Z,24.8
2018-10-17T00:34:09.768Z,24.8
2018-10-17T00:35:15.309Z,24.8
2018-10-17T00:36:21.388Z,24.8
2018-10-17T00:37:27.318Z,24.8
2018-10-17T00:38:32.820Z,24.9
2018-10-17T00:39:38.393Z,24.8
2018-10-17T00:40:43.844Z,24.8
2018-10-17T00:41:49.369Z,24.9
2018-10-17T00:42:55.200Z,24.8
2018-10-17T00:44:00.893Z,24.8
2018-10-17T00:45:05.224Z,24.9
2018-10-17T00:46:10.804Z,24.9
2018-10-17T00:47:15.996Z,24.9
2018-10-17T00:48:21.600Z,24.9
2018-10-17T00:49:27.655Z,24.9
2018-10-17T00:50:32.861Z,24.8
2018-10-17T00:51:38.097Z,24.9
2018-10-17T00:52:43.305Z,24.9
2018-10-17T00:53:48.799Z,24.9
2018-10-17T00:54:54.694Z,24.9
2018-10-17T00:56:00.537Z,24.9
2018-10-17T00:57:05.148Z,24.9
2018-10-17T00:58:10.884Z,24.9
2018-10-17T00:59:16.177Z,24.9
2018-10-17T01:00:21.445Z,24.9
2018-10-17T01:01:26.570Z,24.9
2018-10-17T01:02:31.777Z,24.9
2018-10-17T01:03:37.070Z,24.9
2018-10-17T01:04:42.270Z,24.9
2018-10-17T01:05:47.800Z,24.9
2018-10-17T01:06:53.411Z,24.9
2018-10-17T01:07:59.228Z,24.8
2018-10-17T01:09:04.116Z,24.9
2018-10-17T01:10:09.380Z,24.9
2018-10-17T01:11:14.937Z,24.9
2018-10-17T01:12:20.604Z,24.9
2018-10-17T01:13:40.431Z,24.9
2018-10-17T01:14:46.076Z,24.9
2018-10-17T01:15:51.572Z,24.9
2018-10-17T01:16:56.845Z,24.9
2018-10-17T01:18:02.290Z,24.9
2018-10-17T01:19:07.067Z,24.9
2018-10-17T01:20:12.906Z,24.9
2018-10-17T01:21:17.941Z,24.9
2018-10-17T01:22:23.651Z,24.9
2018-10-17T01:23:28.284Z,24.9
2018-10-17T01:24:33.867Z,24.9
2018-10-17T01:25:39.035Z,24.9
2018-10-17T01:26:44.585Z,24.9
2018-10-17T01:27:50.013Z,24.9
2018-10-17T01:28:55.236Z,24.9
2018-10-17T01:30:00.919Z,24.9
2018-10-17T01:31:05.648Z,24.9
2018-10-17T01:32:10.973Z,24.9
2018-10-17T01:33:16.427Z,24.9
2018-10-17T01:34:22.036Z,25
2018-10-17T01:35:27.486Z,24.9
2018-10-17T01:36:33.037Z,24.9
2018-10-17T01:37:38.493Z,24.9
2018-10-17T01:38:43.944Z,24.9
2018-10-17T01:39:50.005Z,24.9
2018-10-17T01:40:55.031Z,24.9
2018-10-17T01:41:59.746Z,24.9
2018-10-17T01:43:04.940Z,24.9
2018-10-17T01:44:10.539Z,24.9
2018-10-17T01:45:15.995Z,24.9
2018-10-17T01:46:21.407Z,24.9
2018-10-17T01:47:26.855Z,24.9
2018-10-17T01:48:32.139Z,24.9
2018-10-17T01:49:37.332Z,24.9
2018-10-17T01:50:42.801Z,24.9
2018-10-17T01:51:48.725Z,24.9
2018-10-17T01:52:53.959Z,24.9
2018-10-17T01:53:59.255Z,24.9
2018-10-17T01:55:04.457Z,24.9
2018-10-17T01:56:10.550Z,24.9
2018-10-17T01:57:15.495Z,24.9
2018-10-17T01:58:20.683Z,25
2018-10-17T01:59:26.180Z,24.9
2018-10-17T02:00:32.185Z,24.9
2018-10-17T02:01:37.508Z,24.9
2018-10-17T02:02:42.749Z,25
2018-10-17T02:03:48.616Z,24.9
2018-10-17T02:04:53.795Z,24.9
2018-10-17T02:05:58.827Z,24.9
2018-10-17T02:07:04.153Z,24.9
2018-10-17T02:08:09.918Z,24.9
2018-10-17T02:09:15.240Z,24.9
2018-10-17T02:10:20.993Z,24.9
2018-10-17T02:11:25.606Z,24.9
2018-10-17T02:12:31.255Z,24.9
2018-10-17T02:13:36.792Z,25
2018-10-17T02:14:42.285Z,25
2018-10-17T02:15:47.987Z,24.9
2018-10-17T02:16:53.491Z,24.9
2018-10-17T02:17:58.947Z,24.9
2018-10-17T02:19:04.167Z,24.9
2018-10-17T02:20:10.215Z,24.9
2018-10-17T02:21:15.423Z,25
2018-10-17T02:22:20.850Z,24.9
2018-10-17T02:23:26.029Z,24.9
2018-10-17T02:24:31.771Z,24.9
2018-10-17T02:25:37.227Z,25
2018-10-17T02:26:42.381Z,25
2018-10-17T02:27:47.992Z,25
2018-10-17T02:28:53.225Z,25
2018-10-17T02:29:58.709Z,25
2018-10-17T02:31:04.083Z,25
2018-10-17T02:32:10.171Z,25
2018-10-17T02:33:15.344Z,25
2018-10-17T02:34:20.817Z,25
2018-10-17T02:35:26.285Z,25
2018-10-17T02:36:31.853Z,25
2018-10-17T02:37:37.076Z,24.9
2018-10-17T02:38:42.575Z,24.9
2018-10-17T02:39:48.386Z,25
2018-10-17T02:40:53.799Z,25
2018-10-17T02:41:59.365Z,25
2018-10-17T02:43:04.752Z,25
2018-10-17T02:44:10.636Z,25
2018-10-17T02:45:15.805Z,25
2018-10-17T02:46:21.279Z,25
2018-10-17T02:47:26.192Z,25
2018-10-17T02:48:31.660Z,25
2018-10-17T02:49:36.902Z,25
2018-10-17T02:50:41.800Z,25
2018-10-17T02:51:47.598Z,24.9
2018-10-17T02:52:52.532Z,24.9
2018-10-17T02:53:57.838Z,25
2018-10-17T02:55:03.454Z,25
2018-10-17T02:56:08.615Z,25
2018-10-17T02:57:13.316Z,25
2018-10-17T02:58:19.211Z,24.9
2018-10-17T02:59:24.396Z,25
2018-10-17T03:00:29.407Z,25
2018-10-17T03:01:34.330Z,25
2018-10-17T03:02:39.884Z,25
2018-10-17T03:03:45.783Z,24.9
2018-10-17T03:04:50.367Z,24.9
2018-10-17T03:05:55.027Z,24.9
2018-10-17T03:07:00.534Z,24.9
2018-10-17T03:08:06.193Z,24.9
2018-10-17T03:09:11.123Z,24.9
2018-10-17T03:10:16.093Z,24.9
2018-10-17T03:11:21.445Z,24.8
2018-10-17T03:12:26.874Z,24.8
2018-10-17T03:13:31.807Z,24.8
2018-10-17T03:14:37.261Z,24.8
2018-10-17T03:15:42.811Z,24.8
2018-10-17T03:16:48.267Z,24.8
2018-10-17T03:17:53.746Z,24.8
2018-10-17T03:18:59.538Z,24.8
2018-10-17T03:20:05.019Z,24.8
2018-10-17T03:21:09.359Z,24.8
2018-10-17T03:22:14.687Z,24.8
2018-10-17T03:23:20.399Z,24.8
2018-10-17T03:24:26.096Z,24.8
2018-10-17T03:25:31.016Z,24.8
2018-10-17T03:26:36.530Z,24.8
2018-10-17T03:27:42.446Z,24.8
2018-10-17T03:28:47.892Z,24.8
2018-10-17T03:29:53.073Z,24.8
2018-10-17T03:30:58.851Z,24.8
2018-10-17T03:32:04.118Z,24.8
2018-10-17T03:33:09.363Z,24.8
2018-10-17T03:34:14.606Z,24.8
2018-10-17T03:35:19.977Z,24.8
2018-10-17T03:37:45.423Z,24.8
2018-10-17T03:38:50.918Z,24.8
2018-10-17T03:39:56.770Z,24.8
2018-10-17T03:41:02.306Z,24.8
2018-10-17T03:42:07.957Z,24.8
2018-10-17T03:43:13.841Z,24.8
2018-10-17T03:44:19.433Z,24.8
2018-10-17T03:46:44.892Z,24.8
2018-10-17T03:47:50.373Z,24.8
2018-10-17T03:48:55.923Z,24.8
2018-10-17T03:50:01.795Z,24.8
2018-10-17T03:51:06.812Z,24.8
2018-10-17T03:52:12.409Z,24.8
2018-10-17T03:53:17.425Z,24.8
2018-10-17T03:54:23.760Z,24.8
2018-10-17T03:55:44.434Z,24.8
2018-10-17T03:56:49.047Z,24.8
2018-10-17T03:57:54.837Z,24.8
2018-10-17T03:59:00.358Z,24.8
2018-10-17T04:00:06.007Z,24.8
2018-10-17T04:01:11.169Z,24.8
2018-10-17T04:02:17.176Z,24.7
2018-10-17T04:03:22.173Z,24.7
2018-10-17T04:04:28.318Z,24.7
2018-10-17T04:05:33.472Z,24.7
2018-10-17T04:06:38.952Z,24.6
2018-10-17T04:07:43.888Z,24.6
2018-10-17T04:08:48.755Z,24.6
2018-10-17T04:09:54.291Z,24.5
2018-10-17T04:10:59.228Z,24.5
2018-10-17T04:12:04.714Z,24.4
2018-10-17T04:13:10.118Z,24.4
2018-10-17T04:14:16.042Z,24.4
2018-10-17T04:15:21.478Z,24.4
2018-10-17T04:16:26.248Z,24.4
2018-10-17T04:17:31.156Z,24.3
2018-10-17T04:18:36.667Z,24.3
2018-10-17T04:19:42.163Z,24.2
2018-10-17T04:20:47.739Z,24.2
2018-10-17T04:21:53.676Z,24.2
2018-10-17T04:22:58.911Z,24.1
2018-10-17T04:24:04.544Z,24.1
2018-10-17T04:25:09.730Z,24.1
2018-10-17T04:26:15.712Z,24
2018-10-17T04:27:21.149Z,24
2018-10-17T04:28:26.991Z,23.9
2018-10-17T04:29:31.574Z,23.9
2018-10-17T04:30:37.470Z,23.9
2018-10-17T04:31:42.507Z,23.9
2018-10-17T04:32:47.688Z,23.9
2018-10-17T04:33:53.507Z,23.8
2018-10-17T04:34:59.002Z,23.8
2018-10-17T04:36:04.137Z,23.7
2018-10-17T04:37:10.275Z,23.7
2018-10-17T04:38:16.217Z,23.7
2018-10-17T04:39:21.407Z,23.7
2018-10-17T04:40:27.128Z,23.7
2018-10-17T04:41:32.332Z,23.6
2018-10-17T04:42:37.670Z,23.6
2018-10-17T04:43:43.103Z,23.6
2018-10-17T04:44:48.383Z,23.6
2018-10-17T04:45:53.855Z,23.6
2018-10-17T04:46:59.088Z,23.5
2018-10-17T04:48:04.043Z,23.5
2018-10-17T04:49:08.902Z,23.6
2018-10-17T04:50:14.103Z,23.5
2018-10-17T04:51:19.609Z,23.5
2018-10-17T04:52:25.019Z,23.5
2018-10-17T04:53:30.495Z,23.5
2018-10-17T04:54:36.308Z,23.4
2018-10-17T04:55:41.787Z,23.4
2018-10-17T04:56:46.962Z,23.4
2018-10-17T04:57:52.730Z,23.4
2018-10-17T04:58:58.216Z,23.4
2018-10-17T05:00:03.563Z,23.3
2018-10-17T05:01:09.107Z,23.3
2018-10-17T05:02:14.478Z,23.3
2018-10-17T05:03:19.363Z,23.3
2018-10-17T05:04:24.968Z,23.3
2018-10-17T05:05:29.680Z,23.3
2018-10-17T05:06:35.120Z,23.3
2018-10-17T05:07:40.470Z,23.2
2018-10-17T05:08:45.969Z,23.2
2018-10-17T05:09:51.801Z,23.2
2018-10-17T05:10:57.328Z,23.2
2018-10-17T05:12:02.081Z,23.2
2018-10-17T05:13:07.536Z,23.2
2018-10-17T05:14:13.977Z,23.2
2018-10-17T05:15:19.542Z,23.1
2018-10-17T05:16:40.146Z,23.1
2018-10-17T05:17:45.437Z,23.1
2018-10-17T05:18:51.068Z,23.1
2018-10-17T05:19:56.460Z,23.1
2018-10-17T05:21:01.342Z,23.1
2018-10-17T05:22:06.203Z,23.1
2018-10-17T05:23:11.801Z,23
2018-10-17T05:24:16.510Z,23
2018-10-17T05:25:21.946Z,23
2018-10-17T05:26:26.846Z,23
2018-10-17T05:27:32.264Z,23
2018-10-17T05:28:37.452Z,23
2018-10-17T05:29:42.336Z,23
2018-10-17T05:30:48.495Z,23
2018-10-17T05:31:54.034Z,23
2018-10-17T05:32:59.217Z,23
2018-10-17T05:34:04.362Z,23
2018-10-17T05:35:09.887Z,23
2018-10-17T05:36:15.256Z,23
2018-10-17T05:37:20.807Z,23
2018-10-17T05:38:26.831Z,22.9
2018-10-17T05:39:32.638Z,22.9
2018-10-17T05:40:37.854Z,22.9
2018-10-17T05:41:43.349Z,22.9
2018-10-17T05:42:48.851Z,22.9
2018-10-17T05:43:54.026Z,22.9
2018-10-17T05:44:58.998Z,22.9
2018-10-17T05:46:04.803Z,22.9
2018-10-17T05:47:09.939Z,22.9
2018-10-17T05:48:16.005Z,22.9
2018-10-17T05:49:21.777Z,22.9
2018-10-17T05:50:26.658Z,22.8
2018-10-17T05:51:32.192Z,22.8
2018-10-17T05:52:37.406Z,22.8
2018-10-17T05:53:42.526Z,22.8
2018-10-17T05:54:48.078Z,22.8
2018-10-17T05:55:53.566Z,22.8
2018-10-17T05:56:59.164Z,22.8
2018-10-17T05:58:04.969Z,22.7
2018-10-17T05:59:10.072Z,22.7
2018-10-17T06:00:16.179Z,22.7
2018-10-17T06:01:21.957Z,22.7
2018-10-17T06:02:27.337Z,22.7
2018-10-17T06:03:33.427Z,22.7
2018-10-17T06:04:38.932Z,22.7
2018-10-17T06:05:44.432Z,22.7
2018-10-17T06:06:49.882Z,22.7
2018-10-17T06:07:55.154Z,22.7
2018-10-17T06:09:00.373Z,22.7
2018-10-17T06:10:05.498Z,22.7
2018-10-17T06:11:11.097Z,22.7
2018-10-17T06:12:17.221Z,22.7
2018-10-17T06:13:22.747Z,22.7
2018-10-17T06:14:28.203Z,22.7
2018-10-17T06:15:33.029Z,22.6
2018-10-17T06:16:37.988Z,22.7
2018-10-17T06:17:42.966Z,22.7
2018-10-17T06:18:48.096Z,22.6
2018-10-17T06:19:53.187Z,22.6
2018-10-17T06:20:58.067Z,22.6
2018-10-17T06:22:03.219Z,22.6
2018-10-17T06:23:08.871Z,22.6
2018-10-17T06:24:14.699Z,22.6
2018-10-17T06:25:19.528Z,22.6
2018-10-17T06:26:24.695Z,22.6
2018-10-17T06:27:30.324Z,22.6
2018-10-17T06:28:35.479Z,22.6
2018-10-17T06:29:40.649Z,22.6
2018-10-17T06:30:46.100Z,22.6
2018-10-17T06:31:51.751Z,22.6
2018-10-17T06:32:57.233Z,22.6
2018-10-17T06:34:02.750Z,22.6
2018-10-17T06:35:08.393Z,22.6
2018-10-17T06:36:14.272Z,22.6
2018-10-17T06:37:19.913Z,22.6
2018-10-17T06:38:25.069Z,22.6
2018-10-17T06:39:30.854Z,22.5
2018-10-17T06:40:36.356Z,22.5
2018-10-17T06:41:41.811Z,22.6
2018-10-17T06:42:47.525Z,22.5
2018-10-17T06:43:52.452Z,22.6
2018-10-17T06:44:57.831Z,22.5
2018-10-17T06:46:03.717Z,22.5
2018-10-17T06:47:08.715Z,22.5
2018-10-17T06:48:14.368Z,22.5
2018-10-17T06:49:19.956Z,22.5
2018-10-17T06:50:25.080Z,22.5
2018-10-17T06:51:30.825Z,22.5
2018-10-17T06:52:35.138Z,22.5
2018-10-17T06:53:40.345Z,22.5
2018-10-17T06:54:46.274Z,22.5
2018-10-17T06:55:51.987Z,22.5
2018-10-17T06:56:57.427Z,22.5
2018-10-17T06:58:02.845Z,22.5
2018-10-17T06:59:07.804Z,22.5
2018-10-17T07:00:12.937Z,22.5
2018-10-17T07:01:18.627Z,22.5
2018-10-17T07:02:23.582Z,22.4
2018-10-17T07:03:29.108Z,22.5
2018-10-17T07:04:34.172Z,22.4
2018-10-17T07:05:39.342Z,22.4
2018-10-17T07:06:45.245Z,22.4
2018-10-17T07:07:50.738Z,22.4
2018-10-17T07:08:55.900Z,22.4
2018-10-17T07:10:01.610Z,22.4
2018-10-17T07:11:06.666Z,22.4
2018-10-17T07:12:13.369Z,22.4
2018-10-17T07:13:18.641Z,22.4
2018-10-17T07:14:24.316Z,22.4
2018-10-17T07:15:29.527Z,22.4
2018-10-17T07:16:36.063Z,22.4
2018-10-17T07:17:41.051Z,22.4
2018-10-17T07:18:46.779Z,22.4
2018-10-17T07:19:52.236Z,22.4
2018-10-17T07:20:57.414Z,22.4
2018-10-17T07:22:03.000Z,22.4
2018-10-17T07:23:08.247Z,22.4
2018-10-17T07:24:13.337Z,22.4
2018-10-17T07:25:18.501Z,22.4
2018-10-17T07:26:23.960Z,22.4
2018-10-17T07:27:29.898Z,22.4
2018-10-17T07:28:34.903Z,22.4
2018-10-17T07:29:39.987Z,22.4
2018-10-17T07:30:46.985Z,22.4
2018-10-17T07:31:52.200Z,22.4
2018-10-17T07:32:57.106Z,22.4
2018-10-17T07:34:02.312Z,22.4
2018-10-17T07:35:07.509Z,22.3
2018-10-17T07:36:13.099Z,22.3
2018-10-17T07:37:19.471Z,22.4
2018-10-17T07:38:25.044Z,22.4
2018-10-17T07:39:30.578Z,22.4
2018-10-17T07:40:36.020Z,22.4
2018-10-17T07:41:41.214Z,22.4
2018-10-17T07:42:46.611Z,22.4
2018-10-17T07:43:52.058Z,22.3
2018-10-17T07:44:57.286Z,22.3
2018-10-17T07:46:02.608Z,22.3
2018-10-17T07:47:07.827Z,22.3
2018-10-17T07:48:13.558Z,22.3
2018-10-17T07:49:19.881Z,22.3
2018-10-17T07:50:25.457Z,22.3
2018-10-17T07:51:31.267Z,22.3
2018-10-17T07:52:36.696Z,22.3
2018-10-17T07:53:42.236Z,22.3
2018-10-17T07:54:48.109Z,22.3
2018-10-17T07:55:53.307Z,22.3
2018-10-17T07:56:58.464Z,22.3
2018-10-17T07:58:03.921Z,22.3
2018-10-17T07:59:08.522Z,22.3
2018-10-17T08:00:13.446Z,22.3
2018-10-17T08:01:19.987Z,22.3
2018-10-17T08:02:24.653Z,22.3
2018-10-17T08:03:30.004Z,22.3
2018-10-17T08:04:35.167Z,22.3
2018-10-17T08:05:40.605Z,22.3
2018-10-17T08:06:46.433Z,22.3
2018-10-17T08:07:51.835Z,22.3
2018-10-17T08:08:57.102Z,22.3
2018-10-17T08:10:02.823Z,22.3
2018-10-17T08:11:08.269Z,22.3
2018-10-17T08:12:13.293Z,22.3
2018-10-17T08:13:19.699Z,22.3
2018-10-17T08:14:24.854Z,22.3
2018-10-17T08:15:29.922Z,22.3
2018-10-17T08:16:34.784Z,22.3
2018-10-17T08:17:39.948Z,22.3
2018-10-17T08:18:45.655Z,22.3
2018-10-17T08:19:51.403Z,22.3
2018-10-17T08:20:56.588Z,22.3
2018-10-17T08:22:02.076Z,22.3
2018-10-17T08:23:06.991Z,22.3
2018-10-17T08:24:12.507Z,22.3
2018-10-17T08:25:18.824Z,22.3
2018-10-17T08:26:24.305Z,22.3
2018-10-17T08:27:30.430Z,22.3
2018-10-17T08:28:36.833Z,22.3
2018-10-17T08:29:42.133Z,22.3
2018-10-17T08:30:47.562Z,22.3
2018-10-17T08:31:52.998Z,22.3
2018-10-17T08:32:57.995Z,22.3
2018-10-17T08:34:03.080Z,22.3
2018-10-17T08:35:08.021Z,22.3
2018-10-17T08:36:13.767Z,22.3
2018-10-17T08:37:22.536Z,22.3
2018-10-17T08:38:32.606Z,22.3
2018-10-17T08:39:37.724Z,22.3
2018-10-17T08:40:43.338Z,22.3
2018-10-17T08:41:48.050Z,22.3
2018-10-17T08:42:53.555Z,22.3
2018-10-17T08:43:58.542Z,22.3
2018-10-17T08:45:03.364Z,22.3
2018-10-17T08:46:08.313Z,22.3
2018-10-17T08:47:13.959Z,22.3
2018-10-17T08:48:19.020Z,22.3
2018-10-17T08:49:24.647Z,22.3
2018-10-17T08:50:29.919Z,22.3
2018-10-17T08:51:35.507Z,22.3
2018-10-17T08:52:40.659Z,22.3
2018-10-17T08:53:45.928Z,22.3
2018-10-17T08:54:51.685Z,22.3
2018-10-17T08:55:56.950Z,22.3
2018-10-17T08:57:02.636Z,22.3
2018-10-17T08:58:08.079Z,22.3
2018-10-17T08:59:13.247Z,22.3
2018-10-17T09:00:18.412Z,22.3
2018-10-17T09:01:23.417Z,22.3
2018-10-17T09:02:28.581Z,22.3
2018-10-17T09:03:33.474Z,22.3
2018-10-17T09:04:39.120Z,22.3
2018-10-17T09:05:44.303Z,22.3
2018-10-17T09:06:49.999Z,22.3
2018-10-17T09:07:55.543Z,22.3
2018-10-17T09:09:00.566Z,22.3
2018-10-17T09:10:05.637Z,22.3
2018-10-17T09:11:10.698Z,22.3
2018-10-17T09:12:16.109Z,22.3
2018-10-17T09:13:22.143Z,22.3
2018-10-17T09:14:27.811Z,22.3
2018-10-17T09:15:38.379Z,22.3
2018-10-17T09:16:44.054Z,22.3
2018-10-17T09:17:50.872Z,22.3
2018-10-17T09:18:56.093Z,22.3
2018-10-17T09:20:00.841Z,22.3
2018-10-17T09:21:07.366Z,22.3
2018-10-17T09:22:16.975Z,22.3
2018-10-17T09:23:26.073Z,22.3
2018-10-17T09:24:31.381Z,22.3
2018-10-17T09:25:36.664Z,22.3
2018-10-17T09:26:42.470Z,22.3
2018-10-17T09:27:48.008Z,22.3
2018-10-17T09:28:52.927Z,22.3
2018-10-17T09:29:58.678Z,22.2
2018-10-17T09:31:04.775Z,22.2
2018-10-17T09:32:09.972Z,22.1
2018-10-17T09:33:15.491Z,22.1
2018-10-17T09:34:20.776Z,22.1
2018-10-17T09:35:26.099Z,22.1
2018-10-17T09:36:31.700Z,22
2018-10-17T09:37:36.578Z,22
2018-10-17T09:38:42.019Z,22
2018-10-17T09:39:47.628Z,22
2018-10-17T09:40:52.819Z,22
2018-10-17T09:41:58.411Z,22
2018-10-17T09:43:04.344Z,21.9
2018-10-17T09:44:09.063Z,21.9
2018-10-17T09:45:14.557Z,21.9
2018-10-17T09:46:20.162Z,21.9
2018-10-17T09:47:25.799Z,21.9
2018-10-17T09:48:31.042Z,21.9
2018-10-17T09:49:36.282Z,21.8
2018-10-17T09:50:41.433Z,21.8
2018-10-17T09:51:46.887Z,21.8
2018-10-17T09:52:52.327Z,21.8
2018-10-17T09:53:57.510Z,21.8
2018-10-17T09:55:03.224Z,21.8
2018-10-17T09:56:08.116Z,21.8
2018-10-17T09:57:13.273Z,21.7
2018-10-17T09:58:18.538Z,21.7
2018-10-17T09:59:24.299Z,21.7
2018-10-17T10:00:29.927Z,21.7
2018-10-17T10:01:34.932Z,21.7
2018-10-17T10:02:40.384Z,21.7
2018-10-17T10:03:46.335Z,21.7
2018-10-17T10:04:51.813Z,21.7
2018-10-17T10:05:57.301Z,21.7
2018-10-17T10:07:03.141Z,21.6
2018-10-17T10:08:08.699Z,21.6
2018-10-17T10:09:13.850Z,21.6
2018-10-17T10:10:19.535Z,21.6
2018-10-17T10:11:24.448Z,21.6
2018-10-17T10:12:30.321Z,21.6
2018-10-17T10:13:35.836Z,21.5
2018-10-17T10:14:41.344Z,21.5
2018-10-17T10:15:47.537Z,21.5
2018-10-17T10:16:54.463Z,21.5
2018-10-17T10:17:59.703Z,21.5
2018-10-17T10:19:04.891Z,21.5
2018-10-17T10:20:10.141Z,21.5
2018-10-17T10:21:15.582Z,21.5
2018-10-17T10:22:20.761Z,21.5
2018-10-17T10:23:26.320Z,21.5
2018-10-17T10:24:32.113Z,21.4
2018-10-17T10:25:38.029Z,21.4
2018-10-17T10:26:43.229Z,21.4
2018-10-17T10:27:48.375Z,21.4
2018-10-17T10:28:54.007Z,21.4
2018-10-17T10:29:58.752Z,21.4
2018-10-17T10:31:04.710Z,21.4
2018-10-17T10:32:09.307Z,21.4
2018-10-17T10:33:14.360Z,21.3
2018-10-17T10:34:19.374Z,21.3
2018-10-17T10:35:25.016Z,21.3
2018-10-17T10:36:30.588Z,21.3
2018-10-17T10:37:35.472Z,21.3
2018-10-17T10:38:40.726Z,21.3
2018-10-17T10:39:46.554Z,21.3
2018-10-17T10:40:51.746Z,21.2
2018-10-17T10:41:56.774Z,21.3
2018-10-17T10:43:02.624Z,21.2
2018-10-17T10:44:07.591Z,21.2
2018-10-17T10:45:13.041Z,21.2
2018-10-17T10:46:19.686Z,21.2
2018-10-17T10:47:24.911Z,21.2
2018-10-17T10:48:30.756Z,21.2
2018-10-17T10:49:36.016Z,21.2
2018-10-17T10:50:41.457Z,21.2
2018-10-17T10:51:47.196Z,21.2
2018-10-17T10:52:52.753Z,21.2
2018-10-17T10:53:58.004Z,21.1
2018-10-17T10:55:03.729Z,21.1
2018-10-17T10:56:09.022Z,21.1
2018-10-17T10:57:15.463Z,21.1
2018-10-17T10:58:21.421Z,21.1
2018-10-17T10:59:29.043Z,21.1
2018-10-17T11:00:36.020Z,21.1
2018-10-17T11:01:41.575Z,21.1
2018-10-17T11:02:46.856Z,21.1
2018-10-17T11:03:52.696Z,21.2
2018-10-17T11:04:58.169Z,21.2
2018-10-17T11:06:03.752Z,21.2
2018-10-17T11:07:09.164Z,21.2
2018-10-17T11:08:14.867Z,21.2
2018-10-17T11:09:21.108Z,21.2
2018-10-17T11:10:27.200Z,21.2
2018-10-17T11:11:32.404Z,21.2
2018-10-17T11:12:37.556Z,21.2
2018-10-17T11:13:42.526Z,21.2
2018-10-17T11:14:48.014Z,21.2
2018-10-17T11:15:54.564Z,21.2
2018-10-17T11:17:00.021Z,21.2
2018-10-17T11:18:05.219Z,21.2
2018-10-17T11:19:10.350Z,21.2
2018-10-17T11:20:15.828Z,21.2
2018-10-17T11:21:21.520Z,21.2
2018-10-17T11:22:27.661Z,21.2
2018-10-17T11:23:32.268Z,21.2
2018-10-17T11:24:37.116Z,21.2
2018-10-17T11:25:42.596Z,21.3
2018-10-17T11:26:48.119Z,21.3
2018-10-17T11:27:53.715Z,21.3
2018-10-17T11:28:59.329Z,21.3
2018-10-17T11:30:04.369Z,21.3
2018-10-17T11:31:09.320Z,21.3
2018-10-17T11:32:14.765Z,21.3
2018-10-17T11:33:19.635Z,21.3
2018-10-17T11:34:25.181Z,21.3
2018-10-17T11:35:28.935Z,21.3
2018-10-17T11:36:34.670Z,21.3
2018-10-17T11:37:39.839Z,21.3
2018-10-17T11:38:45.085Z,21.3
2018-10-17T11:39:51.002Z,21.3
2018-10-17T11:40:56.510Z,21.3
2018-10-17T11:42:02.501Z,21.3
2018-10-17T11:43:08.374Z,21.4
2018-10-17T11:44:13.534Z,21.4
2018-10-17T11:45:18.446Z,21.4
2018-10-17T11:46:24.300Z,21.4
2018-10-17T11:47:29.493Z,21.4
2018-10-17T11:48:35.191Z,21.4
2018-10-17T11:49:40.207Z,21.4
2018-10-17T11:50:45.853Z,21.4
2018-10-17T11:51:51.669Z,21.4
2018-10-17T11:52:56.900Z,21.4
2018-10-17T11:54:02.307Z,21.4
2018-10-17T11:55:07.263Z,21.4
2018-10-17T11:56:12.598Z,21.4
2018-10-17T11:57:17.829Z,21.4
2018-10-17T11:58:23.582Z,21.4
2018-10-17T11:59:28.820Z,21.5
2018-10-17T12:00:34.608Z,21.5
2018-10-17T12:01:40.031Z,21.5
2018-10-17T12:02:45.579Z,21.5
2018-10-17T12:03:51.540Z,21.5
2018-10-17T12:04:58.780Z,21.5
2018-10-17T12:06:04.603Z,21.5
2018-10-17T12:07:11.048Z,21.5
2018-10-17T12:08:16.311Z,21.5
2018-10-17T12:09:21.524Z,21.5
2018-10-17T12:10:27.162Z,21.5
2018-10-17T12:11:31.876Z,21.5
2018-10-17T12:12:37.782Z,21.5
2018-10-17T12:13:43.093Z,21.5
2018-10-17T12:14:48.444Z,21.5
2018-10-17T12:15:54.129Z,21.5
2018-10-17T12:16:59.623Z,21.5
2018-10-17T12:18:04.785Z,21.5
2018-10-17T12:19:11.641Z,21.5
2018-10-17T12:20:17.532Z,21.6
2018-10-17T12:21:23.028Z,21.6
2018-10-17T12:22:29.246Z,21.6
2018-10-17T12:23:34.391Z,21.6
2018-10-17T12:24:40.127Z,21.6
2018-10-17T12:25:45.068Z,21.6
2018-10-17T12:26:50.218Z,21.6
2018-10-17T12:27:55.191Z,21.6
2018-10-17T12:29:02.058Z,21.6
2018-10-17T12:30:07.077Z,21.6
2018-10-17T12:31:13.335Z,21.6
2018-10-17T12:32:18.820Z,21.6
2018-10-17T12:33:23.992Z,21.6
2018-10-17T12:34:44.330Z,21.6
2018-10-17T12:35:49.769Z,21.6
2018-10-17T12:36:55.619Z,21.6
2018-10-17T12:38:00.781Z,21.6
2018-10-17T12:39:05.767Z,21.6
2018-10-17T12:40:11.498Z,21.6
2018-10-17T12:41:17.565Z,21.6
2018-10-17T12:42:23.373Z,21.6
2018-10-17T12:43:43.843Z,21.6
2018-10-17T12:44:49.590Z,21.6
2018-10-17T12:45:56.133Z,21.6
2018-10-17T12:47:01.436Z,21.6
2018-10-17T12:48:07.112Z,21.6
2018-10-17T12:49:12.781Z,21.6
2018-10-17T12:50:18.624Z,21.6
2018-10-17T12:51:23.982Z,21.6
2018-10-17T12:52:44.255Z,21.6
2018-10-17T12:53:50.889Z,21.6
2018-10-17T12:54:55.854Z,21.6
2018-10-17T12:56:01.343Z,21.6
2018-10-17T12:57:07.304Z,21.6
2018-10-17T12:58:13.028Z,21.6
2018-10-17T12:59:17.680Z,21.6
2018-10-17T13:00:23.676Z,21.6
2018-10-17T13:01:43.831Z,21.6
2018-10-17T13:02:49.032Z,21.6
2018-10-17T13:03:55.069Z,21.6
2018-10-17T13:04:59.995Z,21.6
2018-10-17T13:06:05.719Z,21.6
2018-10-17T13:07:11.291Z,21.6
2018-10-17T13:08:17.330Z,21.6
2018-10-17T13:09:22.494Z,21.6
2018-10-17T13:10:42.603Z,21.6
2018-10-17T13:11:47.487Z,21.6
2018-10-17T13:12:53.031Z,21.6
2018-10-17T13:13:58.019Z,21.6
2018-10-17T13:15:03.353Z,21.6
2018-10-17T13:16:09.771Z,21.6
2018-10-17T13:17:15.381Z,21.6
2018-10-17T13:18:21.361Z,21.6
2018-10-17T13:19:26.827Z,21.6
2018-10-17T13:20:32.041Z,21.6
2018-10-17T13:21:37.767Z,21.6
2018-10-17T13:22:43.207Z,21.6
2018-10-17T13:23:48.449Z,21.6
2018-10-17T13:24:54.337Z,21.6
2018-10-17T13:25:59.973Z,21.6
2018-10-17T13:27:05.130Z,21.6
2018-10-17T13:28:10.723Z,21.6
2018-10-17T13:29:15.976Z,21.6
2018-10-17T13:30:21.502Z,21.6
2018-10-17T13:31:27.307Z,21.6
2018-10-17T13:32:32.181Z,21.6
2018-10-17T13:33:37.967Z,21.6
2018-10-17T13:34:42.463Z,21.6
2018-10-17T13:35:47.786Z,21.6
2018-10-17T13:36:53.061Z,21.6
2018-10-17T13:37:58.114Z,21.6
2018-10-17T13:39:03.556Z,21.6
2018-10-17T13:40:08.805Z,21.6
2018-10-17T13:41:14.137Z,21.6
2018-10-17T13:42:20.024Z,21.6
2018-10-17T13:43:40.099Z,21.6
2018-10-17T13:44:45.247Z,21.6
2018-10-17T13:45:50.472Z,21.6
2018-10-17T13:46:55.662Z,21.6
2018-10-17T13:48:01.145Z,21.6
2018-10-17T13:49:05.845Z,21.6
2018-10-17T13:50:11.797Z,21.6
2018-10-17T13:51:16.989Z,21.6
2018-10-17T13:52:22.686Z,21.6
2018-10-17T13:53:28.192Z,21.6
2018-10-17T13:54:33.086Z,21.6
2018-10-17T13:55:38.521Z,21.6
2018-10-17T13:56:43.965Z,21.6
2018-10-17T13:57:49.769Z,21.6
2018-10-17T13:58:56.699Z,21.6
2018-10-17T14:00:02.338Z,21.6
2018-10-17T14:01:07.169Z,21.6
2018-10-17T14:02:13.106Z,21.6
2018-10-17T14:03:18.228Z,21.6
2018-10-17T14:04:23.406Z,21.6
2018-10-17T14:05:27.451Z,21.6
2018-10-17T14:06:33.186Z,21.6
2018-10-17T14:07:38.350Z,21.6
2018-10-17T14:08:43.545Z,21.6
2018-10-17T14:09:48.976Z,21.6
2018-10-17T14:10:54.042Z,21.6
2018-10-17T14:11:59.556Z,21.6
2018-10-17T14:13:05.025Z,21.6
2018-10-17T14:14:10.375Z,21.6
2018-10-17T14:15:15.938Z,21.6
2018-10-17T14:16:22.306Z,21.6
2018-10-17T14:17:27.759Z,21.6
2018-10-17T14:18:33.221Z,21.6
2018-10-17T14:19:38.732Z,21.6
2018-10-17T14:20:44.206Z,21.6
2018-10-17T14:21:49.899Z,21.6
2018-10-17T14:22:55.129Z,21.6
2018-10-17T14:24:00.315Z,21.6
2018-10-17T14:25:06.175Z,21.6
2018-10-17T14:26:11.626Z,21.6
2018-10-17T14:27:16.971Z,21.6
2018-10-17T14:28:21.689Z,21.6
2018-10-17T14:29:26.975Z,21.6
2018-10-17T14:30:32.813Z,21.6
2018-10-17T14:31:37.408Z,21.6
2018-10-17T14:32:42.285Z,21.6
2018-10-17T14:33:48.248Z,21.6
2018-10-17T14:34:53.468Z,21.6
2018-10-17T14:35:58.373Z,21.6
2018-10-17T14:37:03.807Z,21.6
2018-10-17T14:38:09.122Z,21.6
2018-10-17T14:39:14.312Z,21.6
2018-10-17T14:40:20.897Z,21.6